NCAR-RAP Real-Time Weather Data

Output produced by METARs form (10 April 2020  07:27 UTC)
found at http://weather.rap.ucar.edu/surface/
 
KISP 100356Z 27009KT 10SM FEW100 07/M04 A2933 RMK SLP931 LAST T00671039